Skip Navigation LinksHome page > Weather > Current weather Skip Navigation Links

Current Weather

Central Park, New York

For information only: do not use for flight planning or navigation.
Latest weather
Observation time Monday, September 22, 2014 11:51 PM EDT
Local time Tuesday, September 23, 2014 12:16 AM EDT
Flight conditions Visual Meteorological Conditions
Winds
Wind direction variable
Wind speed 7 mph
Visibility 10 mi.
Sky condition
Ceiling unlimited
Sky clear
Temperature 56°F
Dewpoint 38°F
Altimeter 30.20 in.Hg
Derived measurements
Relative humidity 51%
Density altitude -247 ft.
Sea-level pressure 30.17 in.Hg
Remarks
Fully automated report.
System requires maintenance.
Automated weather observing station with precipitation discriminator.
METAR KNYC 230351Z AUTO VRB06KT 10SM CLR 13/03 A3020 RMK AO2 SLP217 T01330033 $

Settings

Location code

InnerDrive.Weather 4.0.5372.0 Release CLR 4.0.30319.34014
Copyright ©2014 Inner Drive Technology. All rights reserved. Portions Copyright ©1986-2014 David Braverman.

Find weather

Site navigation


Skip Navigation Links

Place info

Page info

PayPal - The safer, easier way to pay online!

Return home.

Copyright ©2014 Inner Drive Technology. Purveyors of fine, hand-crafted computer software. Page printed 2014-09-23T04:16:30 UTC.